sensor_id;sensor_type;location;lat;lon;timestamp;P1;durP1;ratioP1;P2;durP2;ratioP2
4933;SDS011;2482;49.154;8.254;2023-06-22T00:00:03;8.83;;;6.80;;
4933;SDS011;2482;49.154;8.254;2023-06-22T00:02:37;7.13;;;5.90;;
4933;SDS011;2482;49.154;8.254;2023-06-22T00:05:04;8.00;;;5.90;;
4933;SDS011;2482;49.154;8.254;2023-06-22T00:07:31;8.60;;;6.37;;
4933;SDS011;2482;49.154;8.254;2023-06-22T00:09:58;7.70;;;7.00;;
4933;SDS011;2482;49.154;8.254;2023-06-22T00:12:25;7.33;;;6.00;;
4933;SDS011;2482;49.154;8.254;2023-06-22T00:14:53;7.87;;;6.40;;
4933;SDS011;2482;49.154;8.254;2023-06-22T00:17:20;7.60;;;6.70;;
4933;SDS011;2482;49.154;8.254;2023-06-22T00:19:47;8.63;;;6.40;;
4933;SDS011;2482;49.154;8.254;2023-06-22T00:22:19;8.40;;;6.90;;
4933;SDS011;2482;49.154;8.254;2023-06-22T00:24:55;8.30;;;7.00;;
4933;SDS011;2482;49.154;8.254;2023-06-22T00:27:22;10.30;;;8.03;;
4933;SDS011;2482;49.154;8.254;2023-06-22T00:29:49;7.80;;;6.63;;
4933;SDS011;2482;49.154;8.254;2023-06-22T00:32:16;20.27;;;9.03;;
4933;SDS011;2482;49.154;8.254;2023-06-22T00:34:45;20.87;;;7.93;;
4933;SDS011;2482;49.154;8.254;2023-06-22T00:37:14;18.13;;;8.10;;
4933;SDS011;2482;49.154;8.254;2023-06-22T00:39:42;18.73;;;8.90;;
4933;SDS011;2482;49.154;8.254;2023-06-22T00:42:09;13.63;;;9.10;;
4933;SDS011;2482;49.154;8.254;2023-06-22T00:44:37;13.93;;;8.43;;
4933;SDS011;2482;49.154;8.254;2023-06-22T00:49:35;11.20;;;7.80;;
4933;SDS011;2482;49.154;8.254;2023-06-22T00:52:02;13.87;;;8.30;;
4933;SDS011;2482;49.154;8.254;2023-06-22T00:57:02;16.27;;;8.73;;
4933;SDS011;2482;49.154;8.254;2023-06-22T00:59:29;13.97;;;8.53;;
4933;SDS011;2482;49.154;8.254;2023-06-22T01:02:00;9.30;;;8.10;;
4933;SDS011;2482;49.154;8.254;2023-06-22T01:04:33;11.50;;;8.17;;
4933;SDS011;2482;49.154;8.254;2023-06-22T01:12:55;8.60;;;7.80;;
4933;SDS011;2482;49.154;8.254;2023-06-22T01:18:20;13.53;;;7.63;;
4933;SDS011;2482;49.154;8.254;2023-06-22T01:20:55;8.73;;;7.73;;
4933;SDS011;2482;49.154;8.254;2023-06-22T01:29:29;9.40;;;8.40;;
4933;SDS011;2482;49.154;8.254;2023-06-22T01:31:59;11.63;;;8.73;;
4933;SDS011;2482;49.154;8.254;2023-06-22T01:34:29;11.83;;;8.90;;
4933;SDS011;2482;49.154;8.254;2023-06-22T01:36:58;9.73;;;8.40;;
4933;SDS011;2482;49.154;8.254;2023-06-22T01:39:28;11.33;;;9.77;;
4933;SDS011;2482;49.154;8.254;2023-06-22T01:41:56;12.80;;;9.00;;
4933;SDS011;2482;49.154;8.254;2023-06-22T01:44:24;10.27;;;9.17;;
4933;SDS011;2482;49.154;8.254;2023-06-22T01:46:52;11.00;;;8.77;;
4933;SDS011;2482;49.154;8.254;2023-06-22T01:49:20;12.47;;;8.70;;
4933;SDS011;2482;49.154;8.254;2023-06-22T01:51:49;9.70;;;8.33;;
4933;SDS011;2482;49.154;8.254;2023-06-22T01:54:16;11.17;;;9.80;;
4933;SDS011;2482;49.154;8.254;2023-06-22T02:02:01;12.60;;;9.13;;
4933;SDS011;2482;49.154;8.254;2023-06-22T02:04:36;11.73;;;9.50;;
4933;SDS011;2482;49.154;8.254;2023-06-22T02:09:51;11.07;;;9.17;;
4933;SDS011;2482;49.154;8.254;2023-06-22T02:12:22;11.90;;;9.40;;
4933;SDS011;2482;49.154;8.254;2023-06-22T02:14:51;11.20;;;9.80;;
4933;SDS011;2482;49.154;8.254;2023-06-22T02:17:19;12.57;;;9.80;;
4933;SDS011;2482;49.154;8.254;2023-06-22T02:19:46;14.63;;;9.77;;
4933;SDS011;2482;49.154;8.254;2023-06-22T02:22:13;15.83;;;9.50;;
4933;SDS011;2482;49.154;8.254;2023-06-22T02:24:40;10.90;;;9.50;;
4933;SDS011;2482;49.154;8.254;2023-06-22T02:27:07;12.20;;;10.90;;
4933;SDS011;2482;49.154;8.254;2023-06-22T02:29:35;12.00;;;10.27;;
4933;SDS011;2482;49.154;8.254;2023-06-22T02:32:02;15.40;;;10.03;;
4933;SDS011;2482;49.154;8.254;2023-06-22T02:34:31;11.83;;;9.37;;
4933;SDS011;2482;49.154;8.254;2023-06-22T02:37:00;11.60;;;10.50;;
4933;SDS011;2482;49.154;8.254;2023-06-22T02:39:31;13.37;;;10.50;;
4933;SDS011;2482;49.154;8.254;2023-06-22T02:41:59;14.63;;;10.60;;
4933;SDS011;2482;49.154;8.254;2023-06-22T02:44:26;13.10;;;10.63;;
4933;SDS011;2482;49.154;8.254;2023-06-22T02:46:53;15.33;;;11.13;;
4933;SDS011;2482;49.154;8.254;2023-06-22T02:49:20;11.30;;;10.10;;
4933;SDS011;2482;49.154;8.254;2023-06-22T02:51:48;11.40;;;10.17;;
4933;SDS011;2482;49.154;8.254;2023-06-22T02:54:16;14.07;;;10.70;;
4933;SDS011;2482;49.154;8.254;2023-06-22T02:56:43;14.37;;;10.60;;
4933;SDS011;2482;49.154;8.254;2023-06-22T02:59:10;16.17;;;11.13;;
4933;SDS011;2482;49.154;8.254;2023-06-22T03:01:37;14.83;;;10.70;;
4933;SDS011;2482;49.154;8.254;2023-06-22T03:04:07;16.33;;;11.97;;
4933;SDS011;2482;49.154;8.254;2023-06-22T03:06:38;14.53;;;10.97;;
4933;SDS011;2482;49.154;8.254;2023-06-22T03:09:08;13.80;;;11.37;;
4933;SDS011;2482;49.154;8.254;2023-06-22T03:11:38;15.03;;;9.77;;
4933;SDS011;2482;49.154;8.254;2023-06-22T03:14:06;15.00;;;11.40;;
4933;SDS011;2482;49.154;8.254;2023-06-22T03:16:33;13.00;;;11.40;;
4933;SDS011;2482;49.154;8.254;2023-06-22T03:19:00;12.67;;;9.73;;
4933;SDS011;2482;49.154;8.254;2023-06-22T03:21:27;12.03;;;9.83;;
4933;SDS011;2482;49.154;8.254;2023-06-22T03:23:56;15.70;;;10.83;;
4933;SDS011;2482;49.154;8.254;2023-06-22T03:26:23;16.30;;;11.20;;
4933;SDS011;2482;49.154;8.254;2023-06-22T03:28:53;15.43;;;11.20;;
4933;SDS011;2482;49.154;8.254;2023-06-22T03:31:20;18.10;;;11.80;;
4933;SDS011;2482;49.154;8.254;2023-06-22T03:33:48;14.40;;;11.33;;
4933;SDS011;2482;49.154;8.254;2023-06-22T03:36:17;15.97;;;11.47;;
4933;SDS011;2482;49.154;8.254;2023-06-22T03:38:49;21.70;;;11.80;;
4933;SDS011;2482;49.154;8.254;2023-06-22T03:41:17;15.20;;;12.53;;
4933;SDS011;2482;49.154;8.254;2023-06-22T03:43:44;20.10;;;14.20;;
4933;SDS011;2482;49.154;8.254;2023-06-22T03:46:12;15.07;;;13.40;;
4933;SDS011;2482;49.154;8.254;2023-06-22T03:48:40;20.93;;;13.20;;
4933;SDS011;2482;49.154;8.254;2023-06-22T03:51:07;20.20;;;14.40;;
4933;SDS011;2482;49.154;8.254;2023-06-22T03:53:34;21.43;;;14.43;;
4933;SDS011;2482;49.154;8.254;2023-06-22T03:56:01;25.33;;;13.20;;
4933;SDS011;2482;49.154;8.254;2023-06-22T03:58:29;20.83;;;15.23;;
4933;SDS011;2482;49.154;8.254;2023-06-22T04:00:59;16.83;;;15.00;;
4933;SDS011;2482;49.154;8.254;2023-06-22T04:03:26;19.33;;;14.70;;
4933;SDS011;2482;49.154;8.254;2023-06-22T04:05:53;21.03;;;15.30;;
4933;SDS011;2482;49.154;8.254;2023-06-22T04:08:20;21.93;;;14.00;;
4933;SDS011;2482;49.154;8.254;2023-06-22T04:10:47;20.90;;;14.63;;
4933;SDS011;2482;49.154;8.254;2023-06-22T04:13:14;20.63;;;15.70;;
4933;SDS011;2482;49.154;8.254;2023-06-22T04:15:41;24.80;;;16.50;;
4933;SDS011;2482;49.154;8.254;2023-06-22T04:18:08;17.27;;;15.33;;
4933;SDS011;2482;49.154;8.254;2023-06-22T04:20:36;26.60;;;16.40;;
4933;SDS011;2482;49.154;8.254;2023-06-22T04:23:03;23.53;;;15.53;;
4933;SDS011;2482;49.154;8.254;2023-06-22T04:25:31;24.03;;;17.00;;
4933;SDS011;2482;49.154;8.254;2023-06-22T04:27:59;23.57;;;16.63;;
4933;SDS011;2482;49.154;8.254;2023-06-22T04:30:29;24.93;;;16.77;;
4933;SDS011;2482;49.154;8.254;2023-06-22T04:32:58;25.80;;;17.70;;
4933;SDS011;2482;49.154;8.254;2023-06-22T04:35:25;24.63;;;15.80;;
4933;SDS011;2482;49.154;8.254;2023-06-22T04:37:57;40.93;;;18.40;;
4933;SDS011;2482;49.154;8.254;2023-06-22T04:40:24;25.23;;;17.50;;
4933;SDS011;2482;49.154;8.254;2023-06-22T04:42:52;22.77;;;16.63;;
4933;SDS011;2482;49.154;8.254;2023-06-22T04:45:21;30.30;;;17.23;;
4933;SDS011;2482;49.154;8.254;2023-06-22T04:47:48;27.67;;;17.33;;
4933;SDS011;2482;49.154;8.254;2023-06-22T04:50:16;19.87;;;16.23;;
4933;SDS011;2482;49.154;8.254;2023-06-22T04:52:44;19.47;;;16.13;;
4933;SDS011;2482;49.154;8.254;2023-06-22T04:55:12;23.20;;;15.27;;
4933;SDS011;2482;49.154;8.254;2023-06-22T04:57:41;18.73;;;16.53;;
4933;SDS011;2482;49.154;8.254;2023-06-22T05:00:12;20.60;;;16.03;;
4933;SDS011;2482;49.154;8.254;2023-06-22T05:02:43;26.20;;;16.70;;
4933;SDS011;2482;49.154;8.254;2023-06-22T05:05:12;21.30;;;17.57;;
4933;SDS011;2482;49.154;8.254;2023-06-22T05:07:41;25.10;;;17.70;;
4933;SDS011;2482;49.154;8.254;2023-06-22T05:10:11;22.97;;;16.43;;
4933;SDS011;2482;49.154;8.254;2023-06-22T05:12:39;18.57;;;15.07;;
4933;SDS011;2482;49.154;8.254;2023-06-22T05:15:07;19.07;;;14.00;;
4933;SDS011;2482;49.154;8.254;2023-06-22T05:17:35;18.70;;;14.50;;
4933;SDS011;2482;49.154;8.254;2023-06-22T05:20:10;18.70;;;13.83;;
4933;SDS011;2482;49.154;8.254;2023-06-22T05:22:38;15.17;;;13.57;;
4933;SDS011;2482;49.154;8.254;2023-06-22T05:25:09;17.90;;;13.50;;
4933;SDS011;2482;49.154;8.254;2023-06-22T05:27:43;18.73;;;11.70;;
4933;SDS011;2482;49.154;8.254;2023-06-22T05:30:11;16.43;;;12.00;;
4933;SDS011;2482;49.154;8.254;2023-06-22T05:32:38;13.40;;;11.47;;
4933;SDS011;2482;49.154;8.254;2023-06-22T05:35:05;28.33;;;11.40;;
4933;SDS011;2482;49.154;8.254;2023-06-22T05:37:32;12.77;;;9.93;;
4933;SDS011;2482;49.154;8.254;2023-06-22T05:40:00;17.00;;;9.60;;
4933;SDS011;2482;49.154;8.254;2023-06-22T05:42:27;11.10;;;8.97;;
4933;SDS011;2482;49.154;8.254;2023-06-22T05:44:54;13.83;;;9.57;;
4933;SDS011;2482;49.154;8.254;2023-06-22T05:47:21;11.30;;;9.50;;
4933;SDS011;2482;49.154;8.254;2023-06-22T05:49:49;11.40;;;8.63;;
4933;SDS011;2482;49.154;8.254;2023-06-22T05:52:16;11.13;;;9.20;;
4933;SDS011;2482;49.154;8.254;2023-06-22T05:54:45;11.50;;;9.00;;
4933;SDS011;2482;49.154;8.254;2023-06-22T05:57:12;10.10;;;8.30;;
4933;SDS011;2482;49.154;8.254;2023-06-22T05:59:40;11.23;;;9.13;;
4933;SDS011;2482;49.154;8.254;2023-06-22T06:02:07;14.60;;;9.20;;
4933;SDS011;2482;49.154;8.254;2023-06-22T06:04:34;14.70;;;9.50;;
4933;SDS011;2482;49.154;8.254;2023-06-22T06:07:03;11.63;;;9.13;;
4933;SDS011;2482;49.154;8.254;2023-06-22T06:09:30;9.90;;;8.60;;
4933;SDS011;2482;49.154;8.254;2023-06-22T06:11:57;10.43;;;9.10;;
4933;SDS011;2482;49.154;8.254;2023-06-22T06:14:26;11.13;;;8.73;;
4933;SDS011;2482;49.154;8.254;2023-06-22T06:16:53;10.90;;;8.97;;
4933;SDS011;2482;49.154;8.254;2023-06-22T06:19:21;10.10;;;9.10;;
4933;SDS011;2482;49.154;8.254;2023-06-22T06:21:48;11.80;;;8.87;;
4933;SDS011;2482;49.154;8.254;2023-06-22T06:24:16;11.10;;;9.17;;
4933;SDS011;2482;49.154;8.254;2023-06-22T06:26:42;13.53;;;9.17;;
4933;SDS011;2482;49.154;8.254;2023-06-22T06:29:10;9.60;;;8.60;;
4933;SDS011;2482;49.154;8.254;2023-06-22T06:34:14;9.83;;;8.57;;
4933;SDS011;2482;49.154;8.254;2023-06-22T06:36:41;8.87;;;7.80;;
4933;SDS011;2482;49.154;8.254;2023-06-22T06:39:08;8.50;;;7.70;;
4933;SDS011;2482;49.154;8.254;2023-06-22T06:41:36;11.07;;;8.63;;
4933;SDS011;2482;49.154;8.254;2023-06-22T06:44:03;9.53;;;8.10;;
4933;SDS011;2482;49.154;8.254;2023-06-22T06:46:30;10.53;;;8.80;;
4933;SDS011;2482;49.154;8.254;2023-06-22T06:48:57;9.63;;;8.20;;
4933;SDS011;2482;49.154;8.254;2023-06-22T06:51:24;11.53;;;8.83;;
4933;SDS011;2482;49.154;8.254;2023-06-22T06:53:52;10.90;;;8.57;;
4933;SDS011;2482;49.154;8.254;2023-06-22T06:56:19;10.60;;;9.10;;
4933;SDS011;2482;49.154;8.254;2023-06-22T06:58:49;10.57;;;8.47;;
4933;SDS011;2482;49.154;8.254;2023-06-22T07:01:17;11.87;;;8.53;;
4933;SDS011;2482;49.154;8.254;2023-06-22T07:03:48;10.10;;;8.47;;
4933;SDS011;2482;49.154;8.254;2023-06-22T07:06:15;16.10;;;9.43;;
4933;SDS011;2482;49.154;8.254;2023-06-22T07:08:42;10.40;;;8.20;;
4933;SDS011;2482;49.154;8.254;2023-06-22T07:11:09;12.03;;;8.70;;
4933;SDS011;2482;49.154;8.254;2023-06-22T07:13:36;9.27;;;7.87;;
4933;SDS011;2482;49.154;8.254;2023-06-22T07:16:04;12.80;;;8.07;;
4933;SDS011;2482;49.154;8.254;2023-06-22T07:18:31;10.00;;;8.77;;
4933;SDS011;2482;49.154;8.254;2023-06-22T07:20:58;10.53;;;8.87;;
4933;SDS011;2482;49.154;8.254;2023-06-22T07:23:25;12.23;;;8.90;;
4933;SDS011;2482;49.154;8.254;2023-06-22T07:25:52;10.40;;;7.93;;
4933;SDS011;2482;49.154;8.254;2023-06-22T07:28:19;14.40;;;9.00;;
4933;SDS011;2482;49.154;8.254;2023-06-22T07:30:46;14.87;;;8.60;;
4933;SDS011;2482;49.154;8.254;2023-06-22T07:33:13;11.10;;;8.37;;
4933;SDS011;2482;49.154;8.254;2023-06-22T07:35:41;8.80;;;7.80;;
4933;SDS011;2482;49.154;8.254;2023-06-22T07:38:08;10.93;;;9.03;;
4933;SDS011;2482;49.154;8.254;2023-06-22T07:40:35;9.93;;;8.43;;
4933;SDS011;2482;49.154;8.254;2023-06-22T07:43:03;10.43;;;8.53;;
4933;SDS011;2482;49.154;8.254;2023-06-22T07:45:30;8.93;;;7.97;;
4933;SDS011;2482;49.154;8.254;2023-06-22T07:47:59;11.07;;;8.33;;
4933;SDS011;2482;49.154;8.254;2023-06-22T07:50:28;9.30;;;8.30;;
4933;SDS011;2482;49.154;8.254;2023-06-22T07:52:56;12.90;;;8.53;;
4933;SDS011;2482;49.154;8.254;2023-06-22T07:55:23;9.03;;;7.53;;
4933;SDS011;2482;49.154;8.254;2023-06-22T07:57:50;8.60;;;7.57;;
4933;SDS011;2482;49.154;8.254;2023-06-22T08:00:18;15.43;;;7.50;;
4933;SDS011;2482;49.154;8.254;2023-06-22T08:02:47;9.17;;;7.47;;
4933;SDS011;2482;49.154;8.254;2023-06-22T08:05:15;11.23;;;7.43;;
4933;SDS011;2482;49.154;8.254;2023-06-22T08:07:48;12.50;;;7.10;;
4933;SDS011;2482;49.154;8.254;2023-06-22T08:10:19;9.87;;;6.93;;
4933;SDS011;2482;49.154;8.254;2023-06-22T08:12:47;10.73;;;7.50;;
4933;SDS011;2482;49.154;8.254;2023-06-22T08:15:14;11.33;;;8.10;;
4933;SDS011;2482;49.154;8.254;2023-06-22T08:17:41;13.43;;;7.23;;
4933;SDS011;2482;49.154;8.254;2023-06-22T08:20:10;10.20;;;7.03;;
4933;SDS011;2482;49.154;8.254;2023-06-22T08:22:39;8.37;;;6.83;;
4933;SDS011;2482;49.154;8.254;2023-06-22T08:25:10;8.33;;;6.90;;
4933;SDS011;2482;49.154;8.254;2023-06-22T08:27:37;9.43;;;7.40;;
4933;SDS011;2482;49.154;8.254;2023-06-22T08:30:06;10.10;;;7.00;;
4933;SDS011;2482;49.154;8.254;2023-06-22T08:32:34;8.63;;;7.10;;
4933;SDS011;2482;49.154;8.254;2023-06-22T08:35:01;12.60;;;7.17;;
4933;SDS011;2482;49.154;8.254;2023-06-22T08:37:28;8.07;;;6.13;;
4933;SDS011;2482;49.154;8.254;2023-06-22T08:40:03;7.97;;;7.07;;
4933;SDS011;2482;49.154;8.254;2023-06-22T08:42:33;10.07;;;7.57;;
4933;SDS011;2482;49.154;8.254;2023-06-22T08:45:00;11.80;;;7.27;;
4933;SDS011;2482;49.154;8.254;2023-06-22T08:47:27;8.53;;;7.33;;
4933;SDS011;2482;49.154;8.254;2023-06-22T08:49:57;10.60;;;7.80;;
4933;SDS011;2482;49.154;8.254;2023-06-22T08:52:24;9.80;;;7.10;;
4933;SDS011;2482;49.154;8.254;2023-06-22T08:54:52;8.50;;;5.97;;
4933;SDS011;2482;49.154;8.254;2023-06-22T08:57:20;7.63;;;6.73;;
4933;SDS011;2482;49.154;8.254;2023-06-22T08:59:47;8.30;;;6.47;;
4933;SDS011;2482;49.154;8.254;2023-06-22T09:02:15;11.10;;;6.10;;
4933;SDS011;2482;49.154;8.254;2023-06-22T09:04:43;6.50;;;5.87;;
4933;SDS011;2482;49.154;8.254;2023-06-22T09:07:10;9.03;;;6.30;;
4933;SDS011;2482;49.154;8.254;2023-06-22T09:09:38;9.40;;;5.80;;
4933;SDS011;2482;49.154;8.254;2023-06-22T09:12:05;10.33;;;6.43;;
4933;SDS011;2482;49.154;8.254;2023-06-22T09:14:33;11.73;;;6.40;;
4933;SDS011;2482;49.154;8.254;2023-06-22T09:17:00;7.67;;;6.77;;
4933;SDS011;2482;49.154;8.254;2023-06-22T09:19:27;12.57;;;6.50;;
4933;SDS011;2482;49.154;8.254;2023-06-22T09:21:54;11.83;;;5.80;;
4933;SDS011;2482;49.154;8.254;2023-06-22T09:24:21;7.67;;;6.47;;
4933;SDS011;2482;49.154;8.254;2023-06-22T09:26:48;7.93;;;6.20;;
4933;SDS011;2482;49.154;8.254;2023-06-22T09:29:15;11.47;;;5.70;;
4933;SDS011;2482;49.154;8.254;2023-06-22T09:31:42;7.33;;;5.90;;
4933;SDS011;2482;49.154;8.254;2023-06-22T09:34:10;8.53;;;6.03;;
4933;SDS011;2482;49.154;8.254;2023-06-22T09:36:44;9.83;;;6.40;;
4933;SDS011;2482;49.154;8.254;2023-06-22T09:39:12;9.73;;;6.10;;
4933;SDS011;2482;49.154;8.254;2023-06-22T09:41:39;10.87;;;6.20;;
4933;SDS011;2482;49.154;8.254;2023-06-22T09:44:06;7.70;;;5.70;;
4933;SDS011;2482;49.154;8.254;2023-06-22T09:46:40;10.53;;;6.57;;
4933;SDS011;2482;49.154;8.254;2023-06-22T09:49:07;8.07;;;6.20;;
4933;SDS011;2482;49.154;8.254;2023-06-22T09:51:34;10.73;;;6.10;;
4933;SDS011;2482;49.154;8.254;2023-06-22T09:54:01;13.77;;;6.67;;
4933;SDS011;2482;49.154;8.254;2023-06-22T09:56:36;8.73;;;5.83;;
4933;SDS011;2482;49.154;8.254;2023-06-22T09:59:04;7.63;;;6.20;;
4933;SDS011;2482;49.154;8.254;2023-06-22T10:01:44;8.20;;;6.00;;
4933;SDS011;2482;49.154;8.254;2023-06-22T10:04:11;7.77;;;6.20;;
4933;SDS011;2482;49.154;8.254;2023-06-22T10:06:38;12.23;;;5.93;;
4933;SDS011;2482;49.154;8.254;2023-06-22T10:09:07;8.60;;;6.43;;
4933;SDS011;2482;49.154;8.254;2023-06-22T10:11:35;11.40;;;6.90;;
4933;SDS011;2482;49.154;8.254;2023-06-22T10:14:03;10.73;;;6.40;;
4933;SDS011;2482;49.154;8.254;2023-06-22T10:16:30;9.77;;;6.60;;
4933;SDS011;2482;49.154;8.254;2023-06-22T10:18:58;9.10;;;6.03;;
4933;SDS011;2482;49.154;8.254;2023-06-22T10:21:26;8.90;;;5.93;;
4933;SDS011;2482;49.154;8.254;2023-06-22T10:23:54;8.80;;;5.60;;
4933;SDS011;2482;49.154;8.254;2023-06-22T10:26:25;7.07;;;5.67;;
4933;SDS011;2482;49.154;8.254;2023-06-22T10:28:55;8.17;;;6.40;;
4933;SDS011;2482;49.154;8.254;2023-06-22T10:34:13;8.30;;;4.97;;
4933;SDS011;2482;49.154;8.254;2023-06-22T10:36:40;6.67;;;5.60;;
4933;SDS011;2482;49.154;8.254;2023-06-22T10:39:09;6.73;;;5.73;;
4933;SDS011;2482;49.154;8.254;2023-06-22T10:41:36;16.00;;;5.97;;
4933;SDS011;2482;49.154;8.254;2023-06-22T10:44:03;7.07;;;5.63;;
4933;SDS011;2482;49.154;8.254;2023-06-22T10:46:30;12.73;;;5.43;;
4933;SDS011;2482;49.154;8.254;2023-06-22T10:48:57;8.30;;;6.00;;
4933;SDS011;2482;49.154;8.254;2023-06-22T10:51:28;9.40;;;5.97;;
4933;SDS011;2482;49.154;8.254;2023-06-22T10:56:27;7.10;;;6.40;;
4933;SDS011;2482;49.154;8.254;2023-06-22T10:58:54;12.63;;;5.83;;
4933;SDS011;2482;49.154;8.254;2023-06-22T11:01:21;9.60;;;5.40;;
4933;SDS011;2482;49.154;8.254;2023-06-22T11:04:01;7.13;;;5.30;;
4933;SDS011;2482;49.154;8.254;2023-06-22T11:06:29;8.97;;;5.63;;
4933;SDS011;2482;49.154;8.254;2023-06-22T11:08:57;8.67;;;5.40;;
4933;SDS011;2482;49.154;8.254;2023-06-22T11:11:40;7.00;;;5.67;;
4933;SDS011;2482;49.154;8.254;2023-06-22T11:14:07;10.13;;;5.43;;
4933;SDS011;2482;49.154;8.254;2023-06-22T11:16:34;8.10;;;5.00;;
4933;SDS011;2482;49.154;8.254;2023-06-22T11:19:04;6.50;;;5.27;;
4933;SDS011;2482;49.154;8.254;2023-06-22T11:21:32;8.60;;;6.40;;
4933;SDS011;2482;49.154;8.254;2023-06-22T11:24:01;7.57;;;5.10;;
4933;SDS011;2482;49.154;8.254;2023-06-22T11:26:29;10.47;;;4.87;;
4933;SDS011;2482;49.154;8.254;2023-06-22T11:28:56;7.30;;;4.77;;
4933;SDS011;2482;49.154;8.254;2023-06-22T11:31:25;7.27;;;5.13;;
4933;SDS011;2482;49.154;8.254;2023-06-22T11:33:52;10.10;;;5.33;;
4933;SDS011;2482;49.154;8.254;2023-06-22T11:36:20;7.77;;;5.40;;
4933;SDS011;2482;49.154;8.254;2023-06-22T11:38:53;9.20;;;5.13;;
4933;SDS011;2482;49.154;8.254;2023-06-22T11:41:20;8.00;;;5.17;;
4933;SDS011;2482;49.154;8.254;2023-06-22T11:43:47;9.93;;;5.17;;
4933;SDS011;2482;49.154;8.254;2023-06-22T11:46:14;12.70;;;5.43;;
4933;SDS011;2482;49.154;8.254;2023-06-22T11:48:41;8.37;;;5.60;;
4933;SDS011;2482;49.154;8.254;2023-06-22T11:51:08;11.97;;;5.30;;
4933;SDS011;2482;49.154;8.254;2023-06-22T11:53:45;9.80;;;4.73;;
4933;SDS011;2482;49.154;8.254;2023-06-22T11:56:18;13.87;;;5.60;;
4933;SDS011;2482;49.154;8.254;2023-06-22T11:58:45;11.73;;;5.37;;
4933;SDS011;2482;49.154;8.254;2023-06-22T12:03:56;6.37;;;4.20;;
4933;SDS011;2482;49.154;8.254;2023-06-22T12:06:37;10.07;;;5.00;;
4933;SDS011;2482;49.154;8.254;2023-06-22T12:11:43;9.77;;;5.37;;
4933;SDS011;2482;49.154;8.254;2023-06-22T12:14:16;8.47;;;4.57;;
4933;SDS011;2482;49.154;8.254;2023-06-22T12:16:43;9.20;;;4.63;;
4933;SDS011;2482;49.154;8.254;2023-06-22T12:19:11;7.37;;;4.30;;
4933;SDS011;2482;49.154;8.254;2023-06-22T12:21:38;7.30;;;4.67;;
4933;SDS011;2482;49.154;8.254;2023-06-22T12:24:07;11.93;;;4.90;;
4933;SDS011;2482;49.154;8.254;2023-06-22T12:26:34;8.60;;;5.50;;
4933;SDS011;2482;49.154;8.254;2023-06-22T12:29:01;7.83;;;5.20;;
4933;SDS011;2482;49.154;8.254;2023-06-22T12:31:28;9.17;;;5.40;;
4933;SDS011;2482;49.154;8.254;2023-06-22T12:33:55;10.43;;;5.27;;
4933;SDS011;2482;49.154;8.254;2023-06-22T12:36:22;8.00;;;5.37;;
4933;SDS011;2482;49.154;8.254;2023-06-22T12:38:52;10.77;;;6.07;;
4933;SDS011;2482;49.154;8.254;2023-06-22T12:41:22;11.83;;;5.40;;
4933;SDS011;2482;49.154;8.254;2023-06-22T12:43:49;12.30;;;6.00;;
4933;SDS011;2482;49.154;8.254;2023-06-22T12:46:16;11.57;;;5.67;;
4933;SDS011;2482;49.154;8.254;2023-06-22T12:48:43;11.43;;;6.03;;
4933;SDS011;2482;49.154;8.254;2023-06-22T12:51:10;10.83;;;6.57;;
4933;SDS011;2482;49.154;8.254;2023-06-22T12:53:37;17.53;;;6.10;;
4933;SDS011;2482;49.154;8.254;2023-06-22T12:56:05;9.83;;;5.40;;
4933;SDS011;2482;49.154;8.254;2023-06-22T12:58:32;10.60;;;6.17;;
4933;SDS011;2482;49.154;8.254;2023-06-22T13:00:59;10.23;;;5.70;;
4933;SDS011;2482;49.154;8.254;2023-06-22T13:03:25;8.97;;;5.53;;
4933;SDS011;2482;49.154;8.254;2023-06-22T13:05:54;9.50;;;5.30;;
4933;SDS011;2482;49.154;8.254;2023-06-22T13:08:21;7.53;;;5.43;;
4933;SDS011;2482;49.154;8.254;2023-06-22T13:13:34;7.83;;;6.00;;
4933;SDS011;2482;49.154;8.254;2023-06-22T13:16:01;10.03;;;5.50;;
4933;SDS011;2482;49.154;8.254;2023-06-22T13:18:28;9.07;;;5.70;;
4933;SDS011;2482;49.154;8.254;2023-06-22T13:20:55;15.33;;;6.20;;
4933;SDS011;2482;49.154;8.254;2023-06-22T13:23:22;8.37;;;5.63;;
4933;SDS011;2482;49.154;8.254;2023-06-22T13:25:49;9.27;;;5.40;;
4933;SDS011;2482;49.154;8.254;2023-06-22T13:28:25;11.10;;;5.27;;
4933;SDS011;2482;49.154;8.254;2023-06-22T13:30:54;13.87;;;4.93;;
4933;SDS011;2482;49.154;8.254;2023-06-22T13:33:21;12.13;;;5.47;;
4933;SDS011;2482;49.154;8.254;2023-06-22T13:35:50;16.23;;;5.67;;
4933;SDS011;2482;49.154;8.254;2023-06-22T13:38:17;11.97;;;4.87;;
4933;SDS011;2482;49.154;8.254;2023-06-22T13:40:44;10.13;;;4.87;;
4933;SDS011;2482;49.154;8.254;2023-06-22T13:43:12;12.43;;;5.27;;
4933;SDS011;2482;49.154;8.254;2023-06-22T13:45:39;10.33;;;4.97;;
4933;SDS011;2482;49.154;8.254;2023-06-22T13:48:09;11.80;;;5.57;;
4933;SDS011;2482;49.154;8.254;2023-06-22T13:50:37;9.90;;;5.80;;
4933;SDS011;2482;49.154;8.254;2023-06-22T13:53:03;10.40;;;5.37;;
4933;SDS011;2482;49.154;8.254;2023-06-22T13:55:32;12.70;;;5.10;;
4933;SDS011;2482;49.154;8.254;2023-06-22T13:58:01;16.50;;;5.40;;
4933;SDS011;2482;49.154;8.254;2023-06-22T14:00:28;10.00;;;4.93;;
4933;SDS011;2482;49.154;8.254;2023-06-22T14:02:55;14.03;;;5.33;;
4933;SDS011;2482;49.154;8.254;2023-06-22T14:05:41;14.30;;;5.53;;
4933;SDS011;2482;49.154;8.254;2023-06-22T14:13:31;13.73;;;5.37;;
4933;SDS011;2482;49.154;8.254;2023-06-22T14:15:58;7.60;;;5.57;;
4933;SDS011;2482;49.154;8.254;2023-06-22T14:18:25;15.77;;;5.90;;
4933;SDS011;2482;49.154;8.254;2023-06-22T14:20:52;10.50;;;5.80;;
4933;SDS011;2482;49.154;8.254;2023-06-22T14:23:19;11.50;;;6.33;;
4933;SDS011;2482;49.154;8.254;2023-06-22T14:25:46;16.70;;;7.57;;
4933;SDS011;2482;49.154;8.254;2023-06-22T14:28:13;12.23;;;7.47;;
4933;SDS011;2482;49.154;8.254;2023-06-22T14:30:40;13.33;;;6.40;;
4933;SDS011;2482;49.154;8.254;2023-06-22T14:33:07;14.43;;;6.67;;
4933;SDS011;2482;49.154;8.254;2023-06-22T14:35:34;13.70;;;6.33;;
4933;SDS011;2482;49.154;8.254;2023-06-22T14:38:01;10.50;;;6.50;;
4933;SDS011;2482;49.154;8.254;2023-06-22T14:40:28;14.87;;;7.43;;
4933;SDS011;2482;49.154;8.254;2023-06-22T14:43:01;12.07;;;7.00;;
4933;SDS011;2482;49.154;8.254;2023-06-22T14:47:58;15.30;;;6.90;;
4933;SDS011;2482;49.154;8.254;2023-06-22T14:50:25;9.93;;;6.50;;
4933;SDS011;2482;49.154;8.254;2023-06-22T14:52:52;10.50;;;6.40;;
4933;SDS011;2482;49.154;8.254;2023-06-22T14:55:23;17.27;;;7.73;;
4933;SDS011;2482;49.154;8.254;2023-06-22T14:57:51;13.03;;;6.40;;
4933;SDS011;2482;49.154;8.254;2023-06-22T15:00:19;11.90;;;5.40;;
4933;SDS011;2482;49.154;8.254;2023-06-22T15:02:47;7.33;;;4.43;;
4933;SDS011;2482;49.154;8.254;2023-06-22T15:05:17;10.67;;;4.37;;
4933;SDS011;2482;49.154;8.254;2023-06-22T15:07:44;6.80;;;4.67;;
4933;SDS011;2482;49.154;8.254;2023-06-22T15:10:11;10.70;;;5.50;;
4933;SDS011;2482;49.154;8.254;2023-06-22T15:12:39;13.20;;;5.50;;
4933;SDS011;2482;49.154;8.254;2023-06-22T15:15:06;10.07;;;5.33;;
4933;SDS011;2482;49.154;8.254;2023-06-22T15:17:34;8.23;;;4.67;;
4933;SDS011;2482;49.154;8.254;2023-06-22T15:20:09;8.40;;;4.97;;
4933;SDS011;2482;49.154;8.254;2023-06-22T15:22:37;7.47;;;4.63;;
4933;SDS011;2482;49.154;8.254;2023-06-22T15:25:04;8.53;;;4.80;;
4933;SDS011;2482;49.154;8.254;2023-06-22T15:27:32;14.20;;;5.30;;
4933;SDS011;2482;49.154;8.254;2023-06-22T15:30:02;8.70;;;3.93;;
4933;SDS011;2482;49.154;8.254;2023-06-22T15:32:30;8.87;;;4.00;;
4933;SDS011;2482;49.154;8.254;2023-06-22T15:34:57;12.50;;;4.13;;
4933;SDS011;2482;49.154;8.254;2023-06-22T15:37:24;11.80;;;4.73;;
4933;SDS011;2482;49.154;8.254;2023-06-22T15:39:52;7.60;;;3.50;;
4933;SDS011;2482;49.154;8.254;2023-06-22T15:42:19;13.20;;;4.93;;
4933;SDS011;2482;49.154;8.254;2023-06-22T15:44:46;7.23;;;3.90;;
4933;SDS011;2482;49.154;8.254;2023-06-22T15:47:14;8.30;;;4.00;;
4933;SDS011;2482;49.154;8.254;2023-06-22T15:49:41;8.47;;;4.50;;
4933;SDS011;2482;49.154;8.254;2023-06-22T15:52:08;10.63;;;5.27;;
4933;SDS011;2482;49.154;8.254;2023-06-22T15:54:35;7.87;;;4.83;;
4933;SDS011;2482;49.154;8.254;2023-06-22T15:57:02;10.23;;;5.40;;
4933;SDS011;2482;49.154;8.254;2023-06-22T15:59:30;13.30;;;5.60;;